sensor_id;sensor_type;location;lat;lon;timestamp;P1;durP1;ratioP1;P2;durP2;ratioP2
17949;SDS011;9100;48.700;9.316;2022-09-13T00:00:58;7.4;;;3.7;;
17949;SDS011;9100;48.700;9.316;2022-09-13T00:01:57;7.4;;;3.7;;
17949;SDS011;9100;48.700;9.316;2022-09-13T00:02:48;9.8;;;3.5;;
17949;SDS011;9100;48.700;9.316;2022-09-13T00:02:58;9.8;;;3.5;;
17949;SDS011;9100;48.700;9.316;2022-09-13T00:03:58;9.8;;;3.5;;
17949;SDS011;9100;48.700;9.316;2022-09-13T00:04:58;9.8;;;3.5;;
17949;SDS011;9100;48.700;9.316;2022-09-13T00:06:00;9.8;;;3.5;;
17949;SDS011;9100;48.700;9.316;2022-09-13T00:06:58;9.8;;;3.5;;
17949;SDS011;9100;48.700;9.316;2022-09-13T00:07:48;3.9;;;3.5;;
17949;SDS011;9100;48.700;9.316;2022-09-13T00:07:57;3.9;;;3.5;;
17949;SDS011;9100;48.700;9.316;2022-09-13T00:08:57;3.9;;;3.5;;
17949;SDS011;9100;48.700;9.316;2022-09-13T00:09:57;3.9;;;3.5;;
17949;SDS011;9100;48.700;9.316;2022-09-13T00:10:57;3.9;;;3.5;;
17949;SDS011;9100;48.700;9.316;2022-09-13T00:11:58;3.9;;;3.5;;
17949;SDS011;9100;48.700;9.316;2022-09-13T00:12:48;3.3;;;3.1;;
17949;SDS011;9100;48.700;9.316;2022-09-13T00:12:58;3.3;;;3.1;;
17949;SDS011;9100;48.700;9.316;2022-09-13T00:13:58;3.3;;;3.1;;
17949;SDS011;9100;48.700;9.316;2022-09-13T00:14:57;3.3;;;3.1;;
17949;SDS011;9100;48.700;9.316;2022-09-13T00:15:58;3.3;;;3.1;;
17949;SDS011;9100;48.700;9.316;2022-09-13T00:16:58;3.3;;;3.1;;
17949;SDS011;9100;48.700;9.316;2022-09-13T00:17:48;3.3;;;3.1;;
17949;SDS011;9100;48.700;9.316;2022-09-13T00:17:58;3.3;;;3.1;;
17949;SDS011;9100;48.700;9.316;2022-09-13T00:18:58;3.3;;;3.1;;
17949;SDS011;9100;48.700;9.316;2022-09-13T00:19:58;3.3;;;3.1;;
17949;SDS011;9100;48.700;9.316;2022-09-13T00:21:06;3.3;;;3.1;;
17949;SDS011;9100;48.700;9.316;2022-09-13T00:21:58;3.3;;;3.1;;
17949;SDS011;9100;48.700;9.316;2022-09-13T00:22:48;3;;;2.8;;
17949;SDS011;9100;48.700;9.316;2022-09-13T00:22:57;3;;;2.8;;
17949;SDS011;9100;48.700;9.316;2022-09-13T00:23:57;3;;;2.8;;
17949;SDS011;9100;48.700;9.316;2022-09-13T00:24:58;3;;;2.8;;
17949;SDS011;9100;48.700;9.316;2022-09-13T00:26:02;3;;;2.8;;
17949;SDS011;9100;48.700;9.316;2022-09-13T00:26:58;3;;;2.8;;
17949;SDS011;9100;48.700;9.316;2022-09-13T00:27:48;3;;;2.7;;
17949;SDS011;9100;48.700;9.316;2022-09-13T00:27:57;3;;;2.7;;
17949;SDS011;9100;48.700;9.316;2022-09-13T00:28:58;3;;;2.7;;
17949;SDS011;9100;48.700;9.316;2022-09-13T00:29:58;3;;;2.7;;
17949;SDS011;9100;48.700;9.316;2022-09-13T00:30:58;3;;;2.7;;
17949;SDS011;9100;48.700;9.316;2022-09-13T00:31:58;3;;;2.7;;
17949;SDS011;9100;48.700;9.316;2022-09-13T00:32:48;2.9;;;2.7;;
17949;SDS011;9100;48.700;9.316;2022-09-13T00:32:58;2.9;;;2.7;;
17949;SDS011;9100;48.700;9.316;2022-09-13T00:33:58;2.9;;;2.7;;
17949;SDS011;9100;48.700;9.316;2022-09-13T00:34:58;2.9;;;2.7;;
17949;SDS011;9100;48.700;9.316;2022-09-13T00:35:57;2.9;;;2.7;;
17949;SDS011;9100;48.700;9.316;2022-09-13T00:36:58;2.9;;;2.7;;
17949;SDS011;9100;48.700;9.316;2022-09-13T00:37:48;3.7;;;3.2;;
17949;SDS011;9100;48.700;9.316;2022-09-13T00:37:58;3.7;;;3.2;;
17949;SDS011;9100;48.700;9.316;2022-09-13T00:38:58;3.7;;;3.2;;
17949;SDS011;9100;48.700;9.316;2022-09-13T00:39:58;3.7;;;3.2;;
17949;SDS011;9100;48.700;9.316;2022-09-13T00:40:58;3.7;;;3.2;;
17949;SDS011;9100;48.700;9.316;2022-09-13T00:41:57;3.7;;;3.2;;
17949;SDS011;9100;48.700;9.316;2022-09-13T00:42:48;2.9;;;2.7;;
17949;SDS011;9100;48.700;9.316;2022-09-13T00:42:58;2.9;;;2.7;;
17949;SDS011;9100;48.700;9.316;2022-09-13T00:43:58;2.9;;;2.7;;
17949;SDS011;9100;48.700;9.316;2022-09-13T00:44:58;2.9;;;2.7;;
17949;SDS011;9100;48.700;9.316;2022-09-13T00:45:58;2.9;;;2.7;;
17949;SDS011;9100;48.700;9.316;2022-09-13T00:46:58;2.9;;;2.7;;
17949;SDS011;9100;48.700;9.316;2022-09-13T00:47:50;3;;;2.8;;
17949;SDS011;9100;48.700;9.316;2022-09-13T00:47:58;3;;;2.8;;
17949;SDS011;9100;48.700;9.316;2022-09-13T00:48:58;3;;;2.8;;
17949;SDS011;9100;48.700;9.316;2022-09-13T00:49:58;3;;;2.8;;
17949;SDS011;9100;48.700;9.316;2022-09-13T00:50:58;3;;;2.8;;
17949;SDS011;9100;48.700;9.316;2022-09-13T00:51:58;3;;;2.8;;
17949;SDS011;9100;48.700;9.316;2022-09-13T00:52:50;4.2;;;3.1;;
17949;SDS011;9100;48.700;9.316;2022-09-13T00:53:00;4.2;;;3.1;;
17949;SDS011;9100;48.700;9.316;2022-09-13T00:53:57;4.2;;;3.1;;
17949;SDS011;9100;48.700;9.316;2022-09-13T00:54:58;4.2;;;3.1;;
17949;SDS011;9100;48.700;9.316;2022-09-13T00:55:58;4.2;;;3.1;;
17949;SDS011;9100;48.700;9.316;2022-09-13T00:56:58;4.2;;;3.1;;
17949;SDS011;9100;48.700;9.316;2022-09-13T00:57:48;3.4;;;3.2;;
17949;SDS011;9100;48.700;9.316;2022-09-13T00:57:58;3.4;;;3.2;;
17949;SDS011;9100;48.700;9.316;2022-09-13T00:58:58;3.4;;;3.2;;
17949;SDS011;9100;48.700;9.316;2022-09-13T00:59:58;3.4;;;3.2;;
17949;SDS011;9100;48.700;9.316;2022-09-13T01:00:57;3.4;;;3.2;;
17949;SDS011;9100;48.700;9.316;2022-09-13T01:01:58;3.4;;;3.2;;
17949;SDS011;9100;48.700;9.316;2022-09-13T01:02:48;3.4;;;3.2;;
17949;SDS011;9100;48.700;9.316;2022-09-13T01:02:58;3.4;;;3.2;;
17949;SDS011;9100;48.700;9.316;2022-09-13T01:03:57;3.4;;;3.2;;
17949;SDS011;9100;48.700;9.316;2022-09-13T01:04:57;3.4;;;3.2;;
17949;SDS011;9100;48.700;9.316;2022-09-13T01:05:58;3.4;;;3.2;;
17949;SDS011;9100;48.700;9.316;2022-09-13T01:07:00;3.4;;;3.2;;
17949;SDS011;9100;48.700;9.316;2022-09-13T01:07:48;6.1;;;3.2;;
17949;SDS011;9100;48.700;9.316;2022-09-13T01:07:57;6.1;;;3.2;;
17949;SDS011;9100;48.700;9.316;2022-09-13T01:08:57;6.1;;;3.2;;
17949;SDS011;9100;48.700;9.316;2022-09-13T01:09:57;6.1;;;3.2;;
17949;SDS011;9100;48.700;9.316;2022-09-13T01:10:58;6.1;;;3.2;;
17949;SDS011;9100;48.700;9.316;2022-09-13T01:11:59;6.1;;;3.2;;
17949;SDS011;9100;48.700;9.316;2022-09-13T01:12:49;3.4;;;3.1;;
17949;SDS011;9100;48.700;9.316;2022-09-13T01:12:58;3.4;;;3.1;;
17949;SDS011;9100;48.700;9.316;2022-09-13T01:13:58;3.4;;;3.1;;
17949;SDS011;9100;48.700;9.316;2022-09-13T01:14:58;3.4;;;3.1;;
17949;SDS011;9100;48.700;9.316;2022-09-13T01:15:58;3.4;;;3.1;;
17949;SDS011;9100;48.700;9.316;2022-09-13T01:16:58;3.4;;;3.1;;
17949;SDS011;9100;48.700;9.316;2022-09-13T01:17:48;3.4;;;3.1;;
17949;SDS011;9100;48.700;9.316;2022-09-13T01:17:58;3.4;;;3.1;;
17949;SDS011;9100;48.700;9.316;2022-09-13T01:18:57;3.4;;;3.1;;
17949;SDS011;9100;48.700;9.316;2022-09-13T01:19:58;3.4;;;3.1;;
17949;SDS011;9100;48.700;9.316;2022-09-13T01:21:06;3.4;;;3.1;;
17949;SDS011;9100;48.700;9.316;2022-09-13T01:22:07;3.4;;;3.1;;
17949;SDS011;9100;48.700;9.316;2022-09-13T01:23:09;4.6;;;3.4;;
17949;SDS011;9100;48.700;9.316;2022-09-13T01:24:02;4.6;;;3.4;;
17949;SDS011;9100;48.700;9.316;2022-09-13T01:26:03;4.6;;;3.4;;
17949;SDS011;9100;48.700;9.316;2022-09-13T01:27:04;4.6;;;3.4;;
17949;SDS011;9100;48.700;9.316;2022-09-13T01:27:53;7.8;;;2.7;;
17949;SDS011;9100;48.700;9.316;2022-09-13T01:28:32;7.8;;;2.7;;
17949;SDS011;9100;48.700;9.316;2022-09-13T01:29:04;7.8;;;2.7;;
17949;SDS011;9100;48.700;9.316;2022-09-13T01:30:02;7.8;;;2.7;;
17949;SDS011;9100;48.700;9.316;2022-09-13T01:30:58;7.8;;;2.7;;
17949;SDS011;9100;48.700;9.316;2022-09-13T01:31:59;7.8;;;2.7;;
17949;SDS011;9100;48.700;9.316;2022-09-13T01:32:59;2.9;;;2.7;;
17949;SDS011;9100;48.700;9.316;2022-09-13T01:33:01;2.9;;;2.7;;
17949;SDS011;9100;48.700;9.316;2022-09-13T01:34:01;2.9;;;2.7;;
17949;SDS011;9100;48.700;9.316;2022-09-13T01:34:59;2.9;;;2.7;;
17949;SDS011;9100;48.700;9.316;2022-09-13T01:36:05;2.9;;;2.7;;
17949;SDS011;9100;48.700;9.316;2022-09-13T01:37:02;2.9;;;2.7;;
17949;SDS011;9100;48.700;9.316;2022-09-13T01:37:50;3.3;;;3.1;;
17949;SDS011;9100;48.700;9.316;2022-09-13T01:37:59;3.3;;;3.1;;
17949;SDS011;9100;48.700;9.316;2022-09-13T01:38:58;3.3;;;3.1;;
17949;SDS011;9100;48.700;9.316;2022-09-13T01:40:01;3.3;;;3.1;;
17949;SDS011;9100;48.700;9.316;2022-09-13T01:41:00;3.3;;;3.1;;
17949;SDS011;9100;48.700;9.316;2022-09-13T01:42:02;3.3;;;3.1;;
17949;SDS011;9100;48.700;9.316;2022-09-13T01:42:54;5.6;;;3.6;;
17949;SDS011;9100;48.700;9.316;2022-09-13T01:43:02;5.6;;;3.6;;
17949;SDS011;9100;48.700;9.316;2022-09-13T01:44:01;5.6;;;3.6;;
17949;SDS011;9100;48.700;9.316;2022-09-13T01:45:02;5.6;;;3.6;;
17949;SDS011;9100;48.700;9.316;2022-09-13T01:46:01;5.6;;;3.6;;
17949;SDS011;9100;48.700;9.316;2022-09-13T01:46:59;5.6;;;3.6;;
17949;SDS011;9100;48.700;9.316;2022-09-13T01:47:49;4.2;;;3.3;;
17949;SDS011;9100;48.700;9.316;2022-09-13T01:47:59;4.2;;;3.3;;
17949;SDS011;9100;48.700;9.316;2022-09-13T01:48:58;4.2;;;3.3;;
17949;SDS011;9100;48.700;9.316;2022-09-13T01:50:01;4.2;;;3.3;;
17949;SDS011;9100;48.700;9.316;2022-09-13T01:50:59;4.2;;;3.3;;
17949;SDS011;9100;48.700;9.316;2022-09-13T01:51:58;4.2;;;3.3;;
17949;SDS011;9100;48.700;9.316;2022-09-13T01:52:49;3.6;;;3.3;;
17949;SDS011;9100;48.700;9.316;2022-09-13T01:52:59;3.6;;;3.3;;
17949;SDS011;9100;48.700;9.316;2022-09-13T01:54:03;3.6;;;3.3;;
17949;SDS011;9100;48.700;9.316;2022-09-13T01:55:00;3.6;;;3.3;;
17949;SDS011;9100;48.700;9.316;2022-09-13T01:55:59;3.6;;;3.3;;
17949;SDS011;9100;48.700;9.316;2022-09-13T01:56:59;3.6;;;3.3;;
17949;SDS011;9100;48.700;9.316;2022-09-13T01:57:49;3.1;;;2.9;;
17949;SDS011;9100;48.700;9.316;2022-09-13T01:58:01;3.1;;;2.9;;
17949;SDS011;9100;48.700;9.316;2022-09-13T01:58:58;3.1;;;2.9;;
17949;SDS011;9100;48.700;9.316;2022-09-13T01:59:59;3.1;;;2.9;;
17949;SDS011;9100;48.700;9.316;2022-09-13T02:00:59;3.1;;;2.9;;
17949;SDS011;9100;48.700;9.316;2022-09-13T02:01:58;3.1;;;2.9;;
17949;SDS011;9100;48.700;9.316;2022-09-13T02:02:48;3.3;;;2.8;;
17949;SDS011;9100;48.700;9.316;2022-09-13T02:03:00;3.3;;;2.8;;
17949;SDS011;9100;48.700;9.316;2022-09-13T02:03:58;3.3;;;2.8;;
17949;SDS011;9100;48.700;9.316;2022-09-13T02:04:58;3.3;;;2.8;;
17949;SDS011;9100;48.700;9.316;2022-09-13T02:05:59;3.3;;;2.8;;
17949;SDS011;9100;48.700;9.316;2022-09-13T02:06:59;3.3;;;2.8;;
17949;SDS011;9100;48.700;9.316;2022-09-13T02:07:49;3.2;;;2.9;;
17949;SDS011;9100;48.700;9.316;2022-09-13T02:07:59;3.2;;;2.9;;
17949;SDS011;9100;48.700;9.316;2022-09-13T02:08:58;3.2;;;2.9;;
17949;SDS011;9100;48.700;9.316;2022-09-13T02:10:01;3.2;;;2.9;;
17949;SDS011;9100;48.700;9.316;2022-09-13T02:10:59;3.2;;;2.9;;
17949;SDS011;9100;48.700;9.316;2022-09-13T02:11:59;3.2;;;2.9;;
17949;SDS011;9100;48.700;9.316;2022-09-13T02:12:48;3.2;;;3;;
17949;SDS011;9100;48.700;9.316;2022-09-13T02:12:58;3.2;;;3;;
17949;SDS011;9100;48.700;9.316;2022-09-13T02:13:59;3.2;;;3;;
17949;SDS011;9100;48.700;9.316;2022-09-13T02:15:00;3.2;;;3;;
17949;SDS011;9100;48.700;9.316;2022-09-13T02:15:58;3.2;;;3;;
17949;SDS011;9100;48.700;9.316;2022-09-13T02:16:58;3.2;;;3;;
17949;SDS011;9100;48.700;9.316;2022-09-13T02:17:48;3.2;;;3;;
17949;SDS011;9100;48.700;9.316;2022-09-13T02:17:59;3.2;;;3;;
17949;SDS011;9100;48.700;9.316;2022-09-13T02:18:58;3.2;;;3;;
17949;SDS011;9100;48.700;9.316;2022-09-13T02:19:58;3.2;;;3;;
17949;SDS011;9100;48.700;9.316;2022-09-13T02:20:58;3.2;;;3;;
17949;SDS011;9100;48.700;9.316;2022-09-13T02:21:58;3.2;;;3;;
17949;SDS011;9100;48.700;9.316;2022-09-13T02:22:49;3.3;;;3.1;;
17949;SDS011;9100;48.700;9.316;2022-09-13T02:22:59;3.3;;;3.1;;
17949;SDS011;9100;48.700;9.316;2022-09-13T02:23:59;3.3;;;3.1;;
17949;SDS011;9100;48.700;9.316;2022-09-13T02:24:58;3.3;;;3.1;;
17949;SDS011;9100;48.700;9.316;2022-09-13T02:25:58;3.3;;;3.1;;
17949;SDS011;9100;48.700;9.316;2022-09-13T02:26:58;3.3;;;3.1;;
17949;SDS011;9100;48.700;9.316;2022-09-13T02:27:49;3.9;;;3.5;;
17949;SDS011;9100;48.700;9.316;2022-09-13T02:27:59;3.9;;;3.5;;
17949;SDS011;9100;48.700;9.316;2022-09-13T02:28:58;3.9;;;3.5;;
17949;SDS011;9100;48.700;9.316;2022-09-13T02:29:59;3.9;;;3.5;;
17949;SDS011;9100;48.700;9.316;2022-09-13T02:30:58;3.9;;;3.5;;
17949;SDS011;9100;48.700;9.316;2022-09-13T02:31:59;3.9;;;3.5;;
17949;SDS011;9100;48.700;9.316;2022-09-13T02:32:50;3.6;;;3.3;;
17949;SDS011;9100;48.700;9.316;2022-09-13T02:32:59;3.6;;;3.3;;
17949;SDS011;9100;48.700;9.316;2022-09-13T02:33:58;3.6;;;3.3;;
17949;SDS011;9100;48.700;9.316;2022-09-13T02:34:59;3.6;;;3.3;;
17949;SDS011;9100;48.700;9.316;2022-09-13T02:35:58;3.6;;;3.3;;
17949;SDS011;9100;48.700;9.316;2022-09-13T02:36:58;3.6;;;3.3;;
17949;SDS011;9100;48.700;9.316;2022-09-13T02:37:49;4.9;;;3.7;;
17949;SDS011;9100;48.700;9.316;2022-09-13T02:37:59;4.9;;;3.7;;
17949;SDS011;9100;48.700;9.316;2022-09-13T02:38:58;4.9;;;3.7;;
17949;SDS011;9100;48.700;9.316;2022-09-13T02:39:58;4.9;;;3.7;;
17949;SDS011;9100;48.700;9.316;2022-09-13T02:40:59;4.9;;;3.7;;
17949;SDS011;9100;48.700;9.316;2022-09-13T02:41:59;4.9;;;3.7;;
17949;SDS011;9100;48.700;9.316;2022-09-13T02:42:49;3.7;;;3.4;;
17949;SDS011;9100;48.700;9.316;2022-09-13T02:42:59;3.7;;;3.4;;
17949;SDS011;9100;48.700;9.316;2022-09-13T02:44:00;3.7;;;3.4;;
17949;SDS011;9100;48.700;9.316;2022-09-13T02:44:58;3.7;;;3.4;;
17949;SDS011;9100;48.700;9.316;2022-09-13T02:46:00;3.7;;;3.4;;
17949;SDS011;9100;48.700;9.316;2022-09-13T02:46:59;3.7;;;3.4;;
17949;SDS011;9100;48.700;9.316;2022-09-13T02:47:50;3.6;;;3.2;;
17949;SDS011;9100;48.700;9.316;2022-09-13T02:47:58;3.6;;;3.2;;
17949;SDS011;9100;48.700;9.316;2022-09-13T02:48:59;3.6;;;3.2;;
17949;SDS011;9100;48.700;9.316;2022-09-13T02:50:01;3.6;;;3.2;;
17949;SDS011;9100;48.700;9.316;2022-09-13T02:50:58;3.6;;;3.2;;
17949;SDS011;9100;48.700;9.316;2022-09-13T02:51:59;3.6;;;3.2;;
17949;SDS011;9100;48.700;9.316;2022-09-13T02:52:49;3.4;;;3.1;;
17949;SDS011;9100;48.700;9.316;2022-09-13T02:53:00;3.4;;;3.1;;
17949;SDS011;9100;48.700;9.316;2022-09-13T02:54:00;3.4;;;3.1;;
17949;SDS011;9100;48.700;9.316;2022-09-13T02:54:59;3.4;;;3.1;;
17949;SDS011;9100;48.700;9.316;2022-09-13T02:55:59;3.4;;;3.1;;
17949;SDS011;9100;48.700;9.316;2022-09-13T02:56:58;3.4;;;3.1;;
17949;SDS011;9100;48.700;9.316;2022-09-13T02:57:50;2.8;;;2.6;;
17949;SDS011;9100;48.700;9.316;2022-09-13T02:57:59;2.8;;;2.6;;
17949;SDS011;9100;48.700;9.316;2022-09-13T02:58:59;2.8;;;2.6;;
17949;SDS011;9100;48.700;9.316;2022-09-13T02:59:58;2.8;;;2.6;;
17949;SDS011;9100;48.700;9.316;2022-09-13T03:00:58;2.8;;;2.6;;
17949;SDS011;9100;48.700;9.316;2022-09-13T03:01:58;2.8;;;2.6;;
17949;SDS011;9100;48.700;9.316;2022-09-13T03:02:48;3.6;;;3.3;;
17949;SDS011;9100;48.700;9.316;2022-09-13T03:02:58;3.6;;;3.3;;
17949;SDS011;9100;48.700;9.316;2022-09-13T03:03:58;3.6;;;3.3;;
17949;SDS011;9100;48.700;9.316;2022-09-13T03:04:58;3.6;;;3.3;;
17949;SDS011;9100;48.700;9.316;2022-09-13T03:05:58;3.6;;;3.3;;
17949;SDS011;9100;48.700;9.316;2022-09-13T03:06:58;3.6;;;3.3;;
17949;SDS011;9100;48.700;9.316;2022-09-13T03:07:48;2.8;;;2.6;;
17949;SDS011;9100;48.700;9.316;2022-09-13T03:07:58;2.8;;;2.6;;
17949;SDS011;9100;48.700;9.316;2022-09-13T03:08:58;2.8;;;2.6;;
17949;SDS011;9100;48.700;9.316;2022-09-13T03:09:58;2.8;;;2.6;;
17949;SDS011;9100;48.700;9.316;2022-09-13T03:10:59;2.8;;;2.6;;
17949;SDS011;9100;48.700;9.316;2022-09-13T03:12:03;2.8;;;2.6;;
17949;SDS011;9100;48.700;9.316;2022-09-13T03:12:54;3;;;2.7;;
17949;SDS011;9100;48.700;9.316;2022-09-13T03:13:04;3;;;2.7;;
17949;SDS011;9100;48.700;9.316;2022-09-13T03:14:07;3;;;2.7;;
17949;SDS011;9100;48.700;9.316;2022-09-13T03:15:00;3;;;2.7;;
17949;SDS011;9100;48.700;9.316;2022-09-13T03:16:00;3;;;2.7;;
17949;SDS011;9100;48.700;9.316;2022-09-13T03:17:02;3;;;2.7;;
17949;SDS011;9100;48.700;9.316;2022-09-13T03:17:51;3;;;2.9;;
17949;SDS011;9100;48.700;9.316;2022-09-13T03:18:00;3;;;2.9;;
17949;SDS011;9100;48.700;9.316;2022-09-13T03:19:01;3;;;2.9;;
17949;SDS011;9100;48.700;9.316;2022-09-13T03:20:02;3;;;2.9;;
17949;SDS011;9100;48.700;9.316;2022-09-13T03:21:00;3;;;2.9;;
17949;SDS011;9100;48.700;9.316;2022-09-13T03:22:02;3;;;2.9;;
17949;SDS011;9100;48.700;9.316;2022-09-13T03:23:04;3.6;;;3;;
17949;SDS011;9100;48.700;9.316;2022-09-13T03:23:23;3.6;;;3;;
17949;SDS011;9100;48.700;9.316;2022-09-13T03:23:59;3.6;;;3;;
17949;SDS011;9100;48.700;9.316;2022-09-13T03:25:00;3.6;;;3;;
17949;SDS011;9100;48.700;9.316;2022-09-13T03:26:02;3.6;;;3;;
17949;SDS011;9100;48.700;9.316;2022-09-13T03:27:02;3.6;;;3;;
17949;SDS011;9100;48.700;9.316;2022-09-13T03:27:49;6.9;;;3.3;;
17949;SDS011;9100;48.700;9.316;2022-09-13T03:28:00;6.9;;;3.3;;
17949;SDS011;9100;48.700;9.316;2022-09-13T03:29:02;6.9;;;3.3;;
17949;SDS011;9100;48.700;9.316;2022-09-13T03:30:00;6.9;;;3.3;;
17949;SDS011;9100;48.700;9.316;2022-09-13T03:31:01;6.9;;;3.3;;
17949;SDS011;9100;48.700;9.316;2022-09-13T03:32:03;6.9;;;3.3;;
17949;SDS011;9100;48.700;9.316;2022-09-13T03:32:49;3.6;;;3.3;;
17949;SDS011;9100;48.700;9.316;2022-09-13T03:33:00;3.6;;;3.3;;
17949;SDS011;9100;48.700;9.316;2022-09-13T03:33:58;3.6;;;3.3;;
17949;SDS011;9100;48.700;9.316;2022-09-13T03:34:58;3.6;;;3.3;;
17949;SDS011;9100;48.700;9.316;2022-09-13T03:36:00;3.6;;;3.3;;
17949;SDS011;9100;48.700;9.316;2022-09-13T03:37:00;3.6;;;3.3;;
17949;SDS011;9100;48.700;9.316;2022-09-13T03:37:50;4.9;;;3.2;;
17949;SDS011;9100;48.700;9.316;2022-09-13T03:37:59;4.9;;;3.2;;
17949;SDS011;9100;48.700;9.316;2022-09-13T03:38:59;4.9;;;3.2;;
17949;SDS011;9100;48.700;9.316;2022-09-13T03:39:59;4.9;;;3.2;;
17949;SDS011;9100;48.700;9.316;2022-09-13T03:40:58;4.9;;;3.2;;
17949;SDS011;9100;48.700;9.316;2022-09-13T03:41:58;4.9;;;3.2;;
17949;SDS011;9100;48.700;9.316;2022-09-13T03:42:49;4.4;;;3.2;;
17949;SDS011;9100;48.700;9.316;2022-09-13T03:42:59;4.4;;;3.2;;
17949;SDS011;9100;48.700;9.316;2022-09-13T03:43:58;4.4;;;3.2;;
17949;SDS011;9100;48.700;9.316;2022-09-13T03:44:58;4.4;;;3.2;;
17949;SDS011;9100;48.700;9.316;2022-09-13T03:45:58;4.4;;;3.2;;
17949;SDS011;9100;48.700;9.316;2022-09-13T03:46:58;4.4;;;3.2;;
17949;SDS011;9100;48.700;9.316;2022-09-13T03:47:48;3.2;;;2.9;;
17949;SDS011;9100;48.700;9.316;2022-09-13T03:47:58;3.2;;;2.9;;
17949;SDS011;9100;48.700;9.316;2022-09-13T03:48:59;3.2;;;2.9;;
17949;SDS011;9100;48.700;9.316;2022-09-13T03:49:58;3.2;;;2.9;;
17949;SDS011;9100;48.700;9.316;2022-09-13T03:50:58;3.2;;;2.9;;
17949;SDS011;9100;48.700;9.316;2022-09-13T03:51:58;3.2;;;2.9;;
17949;SDS011;9100;48.700;9.316;2022-09-13T03:52:49;4;;;3.2;;
17949;SDS011;9100;48.700;9.316;2022-09-13T03:52:59;4;;;3.2;;
17949;SDS011;9100;48.700;9.316;2022-09-13T03:53:58;4;;;3.2;;
17949;SDS011;9100;48.700;9.316;2022-09-13T03:54:58;4;;;3.2;;
17949;SDS011;9100;48.700;9.316;2022-09-13T03:55:58;4;;;3.2;;
17949;SDS011;9100;48.700;9.316;2022-09-13T03:57:14;4;;;3.2;;
17949;SDS011;9100;48.700;9.316;2022-09-13T03:57:48;3.4;;;3.2;;
17949;SDS011;9100;48.700;9.316;2022-09-13T03:57:58;3.4;;;3.2;;
17949;SDS011;9100;48.700;9.316;2022-09-13T03:58:58;3.4;;;3.2;;
17949;SDS011;9100;48.700;9.316;2022-09-13T03:59:58;3.4;;;3.2;;
17949;SDS011;9100;48.700;9.316;2022-09-13T04:00:58;3.4;;;3.2;;
17949;SDS011;9100;48.700;9.316;2022-09-13T04:01:58;3.4;;;3.2;;
17949;SDS011;9100;48.700;9.316;2022-09-13T04:02:48;3.1;;;2.6;;
17949;SDS011;9100;48.700;9.316;2022-09-13T04:02:58;3.1;;;2.6;;
17949;SDS011;9100;48.700;9.316;2022-09-13T04:03:58;3.1;;;2.6;;
17949;SDS011;9100;48.700;9.316;2022-09-13T04:04:58;3.1;;;2.6;;
17949;SDS011;9100;48.700;9.316;2022-09-13T04:05:58;3.1;;;2.6;;
17949;SDS011;9100;48.700;9.316;2022-09-13T04:06:58;3.1;;;2.6;;
17949;SDS011;9100;48.700;9.316;2022-09-13T04:07:48;2.9;;;2.8;;
17949;SDS011;9100;48.700;9.316;2022-09-13T04:07:58;2.9;;;2.8;;
17949;SDS011;9100;48.700;9.316;2022-09-13T04:08:58;2.9;;;2.8;;
17949;SDS011;9100;48.700;9.316;2022-09-13T04:09:58;2.9;;;2.8;;
17949;SDS011;9100;48.700;9.316;2022-09-13T04:10:58;2.9;;;2.8;;
17949;SDS011;9100;48.700;9.316;2022-09-13T04:11:58;2.9;;;2.8;;
17949;SDS011;9100;48.700;9.316;2022-09-13T04:12:48;3.1;;;2.9;;
17949;SDS011;9100;48.700;9.316;2022-09-13T04:12:58;3.1;;;2.9;;
17949;SDS011;9100;48.700;9.316;2022-09-13T04:13:58;3.1;;;2.9;;
17949;SDS011;9100;48.700;9.316;2022-09-13T04:14:58;3.1;;;2.9;;
17949;SDS011;9100;48.700;9.316;2022-09-13T04:15:59;3.1;;;2.9;;
17949;SDS011;9100;48.700;9.316;2022-09-13T04:16:58;3.1;;;2.9;;
17949;SDS011;9100;48.700;9.316;2022-09-13T04:17:48;7.3;;;4.3;;
17949;SDS011;9100;48.700;9.316;2022-09-13T04:17:58;7.3;;;4.3;;
17949;SDS011;9100;48.700;9.316;2022-09-13T04:18:58;7.3;;;4.3;;
17949;SDS011;9100;48.700;9.316;2022-09-13T04:19:58;7.3;;;4.3;;
17949;SDS011;9100;48.700;9.316;2022-09-13T04:20:58;7.3;;;4.3;;
17949;SDS011;9100;48.700;9.316;2022-09-13T04:21:58;7.3;;;4.3;;
17949;SDS011;9100;48.700;9.316;2022-09-13T04:22:50;3.2;;;3;;
17949;SDS011;9100;48.700;9.316;2022-09-13T04:22:58;3.2;;;3;;
17949;SDS011;9100;48.700;9.316;2022-09-13T04:23:58;3.2;;;3;;
17949;SDS011;9100;48.700;9.316;2022-09-13T04:24:58;3.2;;;3;;
17949;SDS011;9100;48.700;9.316;2022-09-13T04:25:59;3.2;;;3;;
17949;SDS011;9100;48.700;9.316;2022-09-13T04:26:58;3.2;;;3;;
17949;SDS011;9100;48.700;9.316;2022-09-13T04:27:48;4.1;;;2.8;;
17949;SDS011;9100;48.700;9.316;2022-09-13T04:27:58;4.1;;;2.8;;
17949;SDS011;9100;48.700;9.316;2022-09-13T04:28:58;4.1;;;2.8;;
17949;SDS011;9100;48.700;9.316;2022-09-13T04:29:58;4.1;;;2.8;;
17949;SDS011;9100;48.700;9.316;2022-09-13T04:30:58;4.1;;;2.8;;
17949;SDS011;9100;48.700;9.316;2022-09-13T04:31:58;4.1;;;2.8;;
17949;SDS011;9100;48.700;9.316;2022-09-13T04:32:48;7.4;;;3.1;;
17949;SDS011;9100;48.700;9.316;2022-09-13T04:32:58;7.4;;;3.1;;
17949;SDS011;9100;48.700;9.316;2022-09-13T04:33:58;7.4;;;3.1;;
17949;SDS011;9100;48.700;9.316;2022-09-13T04:34:58;7.4;;;3.1;;
17949;SDS011;9100;48.700;9.316;2022-09-13T04:35:58;7.4;;;3.1;;
17949;SDS011;9100;48.700;9.316;2022-09-13T04:36:58;7.4;;;3.1;;
17949;SDS011;9100;48.700;9.316;2022-09-13T04:37:48;3.1;;;2.9;;
17949;SDS011;9100;48.700;9.316;2022-09-13T04:37:58;3.1;;;2.9;;
17949;SDS011;9100;48.700;9.316;2022-09-13T04:38:58;3.1;;;2.9;;
17949;SDS011;9100;48.700;9.316;2022-09-13T04:39:58;3.1;;;2.9;;
17949;SDS011;9100;48.700;9.316;2022-09-13T04:40:58;3.1;;;2.9;;
17949;SDS011;9100;48.700;9.316;2022-09-13T04:41:58;3.1;;;2.9;;
17949;SDS011;9100;48.700;9.316;2022-09-13T04:42:48;4.2;;;3;;
17949;SDS011;9100;48.700;9.316;2022-09-13T04:42:58;4.2;;;3;;
17949;SDS011;9100;48.700;9.316;2022-09-13T04:43:58;4.2;;;3;;
17949;SDS011;9100;48.700;9.316;2022-09-13T04:44:58;4.2;;;3;;
17949;SDS011;9100;48.700;9.316;2022-09-13T04:45:58;4.2;;;3;;
17949;SDS011;9100;48.700;9.316;2022-09-13T04:46:58;4.2;;;3;;
17949;SDS011;9100;48.700;9.316;2022-09-13T04:47:50;7.1;;;2.8;;
17949;SDS011;9100;48.700;9.316;2022-09-13T04:47:58;7.1;;;2.8;;
17949;SDS011;9100;48.700;9.316;2022-09-13T04:48:58;7.1;;;2.8;;
17949;SDS011;9100;48.700;9.316;2022-09-13T04:49:58;7.1;;;2.8;;
17949;SDS011;9100;48.700;9.316;2022-09-13T04:50:59;7.1;;;2.8;;
17949;SDS011;9100;48.700;9.316;2022-09-13T04:51:58;7.1;;;2.8;;
17949;SDS011;9100;48.700;9.316;2022-09-13T04:52:48;3.8;;;2.9;;
17949;SDS011;9100;48.700;9.316;2022-09-13T04:52:58;3.8;;;2.9;;
17949;SDS011;9100;48.700;9.316;2022-09-13T04:53:58;3.8;;;2.9;;
17949;SDS011;9100;48.700;9.316;2022-09-13T04:54:58;3.8;;;2.9;;
17949;SDS011;9100;48.700;9.316;2022-09-13T04:55:59;3.8;;;2.9;;
17949;SDS011;9100;48.700;9.316;2022-09-13T04:56:58;3.8;;;2.9;;
17949;SDS011;9100;48.700;9.316;2022-09-13T04:57:51;4.4;;;3.2;;
17949;SDS011;9100;48.700;9.316;2022-09-13T04:57:58;4.4;;;3.2;;
17949;SDS011;9100;48.700;9.316;2022-09-13T04:58:58;4.4;;;3.2;;
17949;SDS011;9100;48.700;9.316;2022-09-13T04:59:58;4.4;;;3.2;;
17949;SDS011;9100;48.700;9.316;2022-09-13T05:00:59;4.4;;;3.2;;
17949;SDS011;9100;48.700;9.316;2022-09-13T05:01:58;4.4;;;3.2;;
17949;SDS011;9100;48.700;9.316;2022-09-13T05:02:48;3.6;;;3.3;;
17949;SDS011;9100;48.700;9.316;2022-09-13T05:02:58;3.6;;;3.3;;
17949;SDS011;9100;48.700;9.316;2022-09-13T05:03:58;3.6;;;3.3;;
17949;SDS011;9100;48.700;9.316;2022-09-13T05:04:58;3.6;;;3.3;;
17949;SDS011;9100;48.700;9.316;2022-09-13T05:06:00;3.6;;;3.3;;
17949;SDS011;9100;48.700;9.316;2022-09-13T05:06:58;3.6;;;3.3;;
17949;SDS011;9100;48.700;9.316;2022-09-13T05:07:48;4.8;;;2.7;;
17949;SDS011;9100;48.700;9.316;2022-09-13T05:07:58;4.8;;;2.7;;
17949;SDS011;9100;48.700;9.316;2022-09-13T05:08:58;4.8;;;2.7;;
17949;SDS011;9100;48.700;9.316;2022-09-13T05:09:58;4.8;;;2.7;;
17949;SDS011;9100;48.700;9.316;2022-09-13T05:10:58;4.8;;;2.7;;
17949;SDS011;9100;48.700;9.316;2022-09-13T05:11:58;4.8;;;2.7;;
17949;SDS011;9100;48.700;9.316;2022-09-13T05:12:48;3.7;;;3;;
17949;SDS011;9100;48.700;9.316;2022-09-13T05:12:58;3.7;;;3;;
17949;SDS011;9100;48.700;9.316;2022-09-13T05:13:58;3.7;;;3;;
17949;SDS011;9100;48.700;9.316;2022-09-13T05:14:58;3.7;;;3;;
17949;SDS011;9100;48.700;9.316;2022-09-13T05:15:58;3.7;;;3;;
17949;SDS011;9100;48.700;9.316;2022-09-13T05:16:58;3.7;;;3;;
17949;SDS011;9100;48.700;9.316;2022-09-13T05:17:48;6.3;;;3.1;;
17949;SDS011;9100;48.700;9.316;2022-09-13T05:17:58;6.3;;;3.1;;
17949;SDS011;9100;48.700;9.316;2022-09-13T05:18:58;6.3;;;3.1;;